Time;durP1;ratioP1;P1;durP2;ratioP2;P2;SDS_P1;SDS_P2;PMS_P1;PMS_P2;Temp;Humidity;BMP_temperature;BMP_pressure;BME280_temperature;BME280_humidity;BME280_pressure;Samples;Min_cycle;Max_cycle;Signal;HPM_P1;HPM_P2
2022/08/21 00:00:50;;;;;;;26.95;7.35;;;;;;;18.21;100.00;99484.47;5153085;27;20054;-49
2022/08/21 00:03:17;;;;;;;17.35;5.15;;;;;;;17.95;100.00;99498.94;5152937;27;20047;-51
2022/08/21 00:05:45;;;;;;;19.38;5.90;;;;;;;17.99;100.00;99488.59;5152930;27;20615;-52
2022/08/21 00:08:12;;;;;;;14.85;5.45;;;;;;;17.87;100.00;99465.69;5153010;27;20149;-49
2022/08/21 00:10:39;;;;;;;25.60;6.88;;;;;;;17.96;100.00;99490.22;5152775;27;20137;-49
2022/08/21 00:13:06;;;;;;;23.10;7.90;;;;;;;18.27;100.00;99484.81;5152699;27;20138;-51
2022/08/21 00:15:34;;;;;;;16.73;6.85;;;;;;;18.16;100.00;99512.66;5153075;27;20051;-51
2022/08/21 00:18:01;;;;;;;20.13;5.97;;;;;;;18.10;100.00;99505.97;5153009;27;20053;-49
2022/08/21 00:20:27;;;;;;;26.27;7.47;;;;;;;17.80;100.00;99501.00;5152866;27;20478;-49
2022/08/21 00:22:54;;;;;;;27.42;5.75;;;;;;;18.22;100.00;99499.91;5153077;27;20060;-51
2022/08/21 00:25:21;;;;;;;24.27;5.05;;;;;;;17.93;100.00;99504.09;5152689;27;20058;-51
2022/08/21 00:27:48;;;;;;;15.05;5.05;;;;;;;18.02;100.00;99496.09;5152893;27;20095;-51
2022/08/21 00:30:17;;;;;;;24.23;7.00;;;;;;;17.91;100.00;99500.94;5152702;27;20062;-52
2022/08/21 00:32:43;;;;;;;27.35;6.90;;;;;;;17.89;100.00;99493.00;5152799;27;20054;-49
2022/08/21 00:35:12;;;;;;;26.73;6.13;;;;;;;18.14;100.00;99476.19;5152799;27;20050;-49
2022/08/21 00:37:40;;;;;;;20.00;5.43;;;;;;;18.01;100.00;99503.63;5152559;27;20047;-51
2022/08/21 00:40:09;;;;;;;16.50;5.45;;;;;;;18.20;100.00;99487.66;5152414;27;20058;-49
2022/08/21 00:42:35;;;;;;;14.35;7.15;;;;;;;17.99;100.00;99508.00;5152483;27;20058;-52
2022/08/21 00:45:03;;;;;;;12.80;5.07;;;;;;;17.94;100.00;99477.94;5152249;27;20047;-52
2022/08/21 00:47:29;;;;;;;18.67;5.50;;;;;;;17.99;100.00;99489.38;5152182;27;20138;-52
2022/08/21 00:49:56;;;;;;;15.20;5.57;;;;;;;17.93;100.00;99468.06;5152445;27;20046;-49
2022/08/21 00:52:25;;;;;;;20.15;7.25;;;;;;;18.00;100.00;99490.19;5152052;27;20414;-51
2022/08/21 00:54:54;;;;;;;19.00;5.53;;;;;;;18.01;100.00;99484.22;5152409;27;20478;-53
2022/08/21 00:57:24;;;;;;;17.02;6.53;;;;;;;18.15;100.00;99490.84;5151905;27;20537;-52
2022/08/21 00:59:54;;;;;;;21.92;7.20;;;;;;;17.81;100.00;99485.94;5152140;27;20430;-52
2022/08/21 01:02:21;;;;;;;21.95;5.78;;;;;;;17.75;100.00;99474.44;5151569;27;20058;-51
2022/08/21 01:04:49;;;;;;;15.68;5.78;;;;;;;17.90;100.00;99477.97;5151070;27;20463;-53
2022/08/21 01:07:16;;;;;;;26.38;5.65;;;;;;;17.67;100.00;99455.50;5151715;27;20133;-51
2022/08/21 01:09:43;;;;;;;22.45;5.10;;;;;;;17.66;100.00;99438.09;5151870;27;20047;-53
2022/08/21 01:12:11;;;;;;;18.50;5.07;;;;;;;17.73;100.00;99440.81;5151610;27;20047;-51
2022/08/21 01:14:38;;;;;;;18.02;7.32;;;;;;;17.81;100.00;99450.69;5151912;27;20050;-49
2022/08/21 01:17:06;;;;;;;24.20;6.50;;;;;;;17.67;100.00;99444.41;5151819;27;20046;-50
2022/08/21 01:19:34;;;;;;;14.70;5.47;;;;;;;17.67;100.00;99438.88;5151664;27;20519;-50
2022/08/21 01:22:01;;;;;;;25.33;5.57;;;;;;;17.62;100.00;99440.88;5151921;27;20050;-49
2022/08/21 01:24:27;;;;;;;22.63;5.47;;;;;;;17.57;100.00;99413.59;5151668;27;20049;-49
2022/08/21 01:26:54;;;;;;;15.02;5.15;;;;;;;17.78;100.00;99421.00;5151734;27;20051;-49
2022/08/21 01:29:30;;;;;;;13.93;5.78;;;;;;;17.49;100.00;99430.66;5151554;27;20047;-49
2022/08/21 01:31:57;;;;;;;17.17;5.50;;;;;;;17.49;100.00;99422.34;5151509;27;20570;-52
2022/08/21 01:34:23;;;;;;;14.18;5.25;;;;;;;17.56;100.00;99400.94;5151761;27;20051;-51
2022/08/21 01:36:50;;;;;;;26.23;8.05;;;;;;;17.37;100.00;99426.38;5151510;27;20089;-50
2022/08/21 01:39:17;;;;;;;25.13;7.53;;;;;;;17.62;100.00;99427.00;5151268;27;20050;-51
2022/08/21 01:41:44;;;;;;;14.32;5.30;;;;;;;17.66;100.00;99424.22;5151851;27;20054;-52
2022/08/21 01:44:10;;;;;;;13.68;5.40;;;;;;;17.59;100.00;99421.47;5151694;27;20081;-52
2022/08/21 01:46:36;;;;;;;21.52;5.80;;;;;;;17.66;100.00;99443.63;5151373;27;20047;-50
2022/08/21 01:49:03;;;;;;;20.25;7.57;;;;;;;17.80;100.00;99451.88;5151661;27;20502;-51
2022/08/21 01:51:30;;;;;;;23.73;7.55;;;;;;;17.53;100.00;99450.84;5151185;27;20527;-49
2022/08/21 01:53:56;;;;;;;25.25;5.43;;;;;;;17.46;100.00;99417.59;5151588;27;20047;-49
2022/08/21 01:56:25;;;;;;;23.15;5.65;;;;;;;17.73;100.00;99443.59;5151386;27;20508;-49
2022/08/21 01:58:52;;;;;;;20.58;5.60;;;;;;;17.63;100.00;99455.53;5151169;27;20069;-49
2022/08/21 02:01:18;;;;;;;14.15;5.15;;;;;;;17.50;100.00;99457.97;5151132;27;20157;-52
2022/08/21 02:03:44;;;;;;;16.27;6.57;;;;;;;17.67;100.00;99442.44;5151329;27;20050;-50
2022/08/21 02:06:17;;;;;;;9.40;5.30;;;;;;;17.72;100.00;99461.41;5151270;27;20366;-52
2022/08/21 02:08:43;;;;;;;27.35;8.43;;;;;;;17.45;100.00;99449.28;5151123;27;20322;-52
2022/08/21 02:11:10;;;;;;;14.73;5.85;;;;;;;17.62;100.00;99449.19;5151286;27;20051;-52
2022/08/21 02:13:37;;;;;;;17.27;7.30;;;;;;;17.46;100.00;99435.03;5151407;27;20399;-50
2022/08/21 02:16:04;;;;;;;20.88;7.85;;;;;;;17.48;100.00;99418.00;5154177;27;20074;-49
2022/08/21 02:18:30;;;;;;;14.98;5.65;;;;;;;17.34;100.00;99416.88;5154555;27;20142;-48
2022/08/21 02:20:56;;;;;;;16.48;5.18;;;;;;;17.56;100.00;99416.75;5155042;27;20050;-49
2022/08/21 02:23:23;;;;;;;11.43;5.00;;;;;;;17.35;100.00;99415.69;5154615;27;20051;-50
2022/08/21 02:25:49;;;;;;;15.57;5.07;;;;;;;17.22;100.00;99406.25;5154608;27;20114;-48
2022/08/21 02:28:16;;;;;;;20.75;7.40;;;;;;;17.36;100.00;99403.44;5154458;27;20481;-49
2022/08/21 02:30:44;;;;;;;16.00;5.47;;;;;;;17.13;100.00;99420.56;5154624;27;20057;-51
2022/08/21 02:33:11;;;;;;;15.07;5.20;;;;;;;17.11;100.00;99386.13;5154127;27;20050;-48
2022/08/21 02:35:39;;;;;;;18.40;5.82;;;;;;;17.00;100.00;99369.59;5154362;27;20093;-49
2022/08/21 02:38:07;;;;;;;14.35;5.88;;;;;;;16.97;100.00;99341.91;5154557;27;20131;-49
2022/08/21 02:40:37;;;;;;;18.85;6.22;;;;;;;17.33;100.00;99337.72;5154243;27;20051;-52
2022/08/21 02:43:05;;;;;;;14.63;5.95;;;;;;;17.52;100.00;99388.25;5154464;27;20443;-51
2022/08/21 02:45:32;;;;;;;19.48;5.28;;;;;;;17.49;100.00;99386.31;5154211;27;20050;-49
2022/08/21 02:48:02;;;;;;;27.38;5.88;;;;;;;17.38;100.00;99423.19;5154154;27;20046;-49
2022/08/21 02:50:31;;;;;;;11.98;5.35;;;;;;;17.05;100.00;99424.53;5154081;27;20129;-53
2022/08/21 02:52:58;;;;;;;26.50;7.95;;;;;;;17.29;100.00;99386.81;5154004;27;20145;-50
2022/08/21 02:55:27;;;;;;;12.85;4.50;;;;;;;17.33;100.00;99401.47;5154032;27;20498;-49
2022/08/21 02:57:53;;;;;;;20.00;5.75;;;;;;;17.25;100.00;99407.44;5154144;27;20054;-49
2022/08/21 03:00:21;;;;;;;19.95;6.78;;;;;;;17.71;100.00;99423.00;5153830;27;20498;-49
2022/08/21 03:02:47;;;;;;;12.30;5.50;;;;;;;17.46;100.00;99464.72;5154060;27;20152;-50
2022/08/21 03:05:15;;;;;;;11.80;5.53;;;;;;;17.73;100.00;99463.00;5153896;27;20058;-53
2022/08/21 03:07:42;;;;;;;19.30;5.07;;;;;;;17.60;100.00;99461.88;5153939;27;20042;-53
2022/08/21 03:10:09;;;;;;;23.00;5.80;;;;;;;17.40;100.00;99470.69;5154039;27;20103;-52
2022/08/21 03:12:35;;;;;;;18.80;5.07;;;;;;;17.30;100.00;99459.66;5153655;27;20390;-50
2022/08/21 03:15:01;;;;;;;19.63;5.63;;;;;;;17.47;100.00;99455.22;5153888;27;20069;-52
2022/08/21 03:17:28;;;;;;;23.80;5.68;;;;;;;17.35;100.00;99448.94;5153741;27;20501;-51
2022/08/21 03:19:54;;;;;;;25.25;7.78;;;;;;;17.64;100.00;99465.41;5153935;27;20061;-51
2022/08/21 03:22:21;;;;;;;16.23;5.28;;;;;;;17.60;100.00;99468.22;5153607;27;20058;-49
2022/08/21 03:24:47;;;;;;;17.38;5.18;;;;;;;17.62;100.00;99467.81;5153571;27;20047;-50
2022/08/21 03:27:14;;;;;;;17.25;5.53;;;;;;;17.33;100.00;99464.41;5152537;27;20057;-48
2022/08/21 03:29:40;;;;;;;22.67;7.00;;;;;;;17.43;100.00;99444.16;5153634;27;20138;-48
2022/08/21 03:32:09;;;;;;;21.33;7.15;;;;;;;17.56;100.00;99448.06;5153228;27;20046;-50
2022/08/21 03:34:35;;;;;;;13.68;5.70;;;;;;;17.62;100.00;99465.81;5153489;27;20074;-49
2022/08/21 03:37:01;;;;;;;17.20;5.20;;;;;;;17.72;100.00;99485.56;5153771;27;20082;-51
2022/08/21 03:39:29;;;;;;;18.33;5.60;;;;;;;17.66;100.00;99474.13;5153295;27;20465;-53
2022/08/21 03:41:55;;;;;;;12.50;5.35;;;;;;;17.56;100.00;99494.34;5153621;27;20129;-50
2022/08/21 03:44:21;;;;;;;19.30;5.63;;;;;;;17.31;100.00;99461.25;5153174;27;20053;-49
2022/08/21 03:46:48;;;;;;;23.80;7.45;;;;;;;17.47;100.00;99458.78;5153090;27;20051;-52
2022/08/21 03:49:14;;;;;;;16.35;5.40;;;;;;;17.32;100.00;99460.81;5153291;27;20149;-51
2022/08/21 03:51:40;;;;;;;24.65;5.47;;;;;;;17.41;100.00;99450.09;5153004;27;20050;-52
2022/08/21 03:54:07;;;;;;;16.42;5.38;;;;;;;17.61;100.00;99461.47;5153063;27;20043;-52
2022/08/21 03:56:34;;;;;;;19.92;5.07;;;;;;;17.59;100.00;99472.19;5153169;27;20047;-53
2022/08/21 03:59:02;;;;;;;23.33;7.68;;;;;;;17.79;100.00;99478.03;5153036;27;20549;-48
2022/08/21 04:01:28;;;;;;;20.80;5.07;;;;;;;17.77;100.00;99485.19;5153114;27;20050;-49
2022/08/21 04:03:55;;;;;;;12.82;5.75;;;;;;;17.78;100.00;99495.84;5153362;27;20096;-49
2022/08/21 04:06:21;;;;;;;17.85;5.05;;;;;;;17.87;100.00;99496.19;5152687;27;20163;-49
2022/08/21 04:08:47;;;;;;;19.63;6.75;;;;;;;17.88;100.00;99516.41;5153202;27;20133;-49
2022/08/21 04:11:14;;;;;;;20.10;7.35;;;;;;;17.84;100.00;99505.34;5152573;27;20047;-49
2022/08/21 04:13:41;;;;;;;19.35;7.30;;;;;;;17.51;100.00;99514.19;5152881;27;20054;-48
2022/08/21 04:16:08;;;;;;;12.93;4.82;;;;;;;17.71;100.00;99500.63;5152656;27;20150;-52
2022/08/21 04:18:34;;;;;;;16.73;5.55;;;;;;;17.93;100.00;99513.22;5152687;27;20047;-49
2022/08/21 04:21:03;;;;;;;12.13;5.43;;;;;;;17.64;100.00;99513.34;5152748;27;20089;-51
2022/08/21 04:23:30;;;;;;;20.02;7.25;;;;;;;17.71;100.00;99511.72;5152592;27;20049;-49
2022/08/21 04:25:57;;;;;;;16.48;6.72;;;;;;;17.82;100.00;99512.47;5152659;27;20552;-50
2022/08/21 04:28:24;;;;;;;16.08;5.32;;;;;;;17.98;100.00;99520.31;5152591;27;20129;-50
2022/08/21 04:30:52;;;;;;;12.85;4.47;;;;;;;17.99;100.00;99527.44;5152850;27;20510;-49
2022/08/21 04:33:19;;;;;;;14.40;5.30;;;;;;;17.80;100.00;99531.53;5152323;27;20058;-52
2022/08/21 04:35:45;;;;;;;25.48;7.78;;;;;;;17.79;100.00;99530.72;5152748;27;20084;-51
2022/08/21 04:38:11;;;;;;;22.58;7.13;;;;;;;17.64;100.00;99513.34;5152003;27;20137;-49
2022/08/21 04:40:38;;;;;;;12.38;4.78;;;;;;;17.93;100.00;99509.66;5152231;27;20569;-52
2022/08/21 04:43:06;;;;;;;19.67;5.80;;;;;;;17.99;100.00;99527.44;5152324;27;20520;-50
2022/08/21 04:45:36;;;;;;;17.02;5.25;;;;;;;17.90;100.00;99532.66;5152261;27;20513;-48
2022/08/21 04:48:06;;;;;;;24.77;5.78;;;;;;;17.80;100.00;99525.97;5152111;27;20525;-50
2022/08/21 04:50:39;;;;;;;16.50;5.13;;;;;;;18.03;100.00;99517.91;5152203;27;20125;-52
2022/08/21 04:53:08;;;;;;;13.43;5.75;;;;;;;17.67;100.00;99508.97;5152207;27;20055;-49
2022/08/21 04:55:36;;;;;;;22.67;6.68;;;;;;;18.15;100.00;99524.16;5152303;27;20111;-52
2022/08/21 04:58:03;;;;;;;20.95;7.30;;;;;;;18.09;100.00;99538.47;5152089;27;20050;-49
2022/08/21 05:00:29;;;;;;;21.67;6.35;;;;;;;18.11;100.00;99546.38;5152030;27;20523;-49
2022/08/21 05:02:58;;;;;;;27.30;5.57;;;;;;;18.23;100.00;99553.44;5152690;27;20051;-49
2022/08/21 05:05:25;;;;;;;24.85;5.75;;;;;;;18.07;100.00;99557.50;5151894;27;20054;-49
2022/08/21 05:07:53;;;;;;;28.15;7.25;;;;;;;17.97;100.00;99563.91;5151923;27;20466;-49
2022/08/21 05:10:20;;;;;;;20.60;7.15;;;;;;;18.14;100.00;99547.56;5151837;27;20046;-49
2022/08/21 05:12:46;;;;;;;14.95;5.00;;;;;;;17.87;100.00;99539.78;5151803;27;20097;-49
2022/08/21 05:15:13;;;;;;;15.80;5.00;;;;;;;17.97;100.00;99536.16;5151895;27;20049;-50
2022/08/21 05:17:40;;;;;;;12.18;6.10;;;;;;;17.92;100.00;99528.25;5151733;27;20549;-49
2022/08/21 05:20:07;;;;;;;19.95;5.55;;;;;;;18.01;100.00;99530.59;5151786;27;20079;-50
2022/08/21 05:22:34;;;;;;;23.95;7.00;;;;;;;18.22;100.00;99529.66;5151560;27;20142;-51
2022/08/21 05:25:00;;;;;;;18.10;6.72;;;;;;;18.35;100.00;99548.19;5151629;27;20573;-50
2022/08/21 05:27:29;;;;;;;17.52;6.45;;;;;;;18.38;100.00;99552.13;5151677;27;20133;-50
2022/08/21 05:29:56;;;;;;;16.27;4.50;;;;;;;18.49;100.00;99557.59;5151997;27;20047;-49
2022/08/21 05:32:22;;;;;;;17.17;4.30;;;;;;;17.94;100.00;99538.97;5151639;27;20095;-52
2022/08/21 05:34:48;;;;;;;16.52;5.10;;;;;;;18.05;100.00;99543.22;5151424;27;20061;-49
2022/08/21 05:37:15;;;;;;;20.70;5.57;;;;;;;17.70;100.00;99533.13;5151458;27;20054;-48
2022/08/21 05:39:42;;;;;;;22.27;6.53;;;;;;;18.55;100.00;99542.06;5151620;27;20054;-52
2022/08/21 05:42:08;;;;;;;15.65;5.85;;;;;;;18.26;100.00;99547.06;5151762;27;20094;-50
2022/08/21 05:44:35;;;;;;;18.85;6.32;;;;;;;18.74;100.00;99551.88;5151578;27;20065;-53
2022/08/21 05:47:04;;;;;;;12.27;4.03;;;;;;;18.35;100.00;99555.72;5151839;27;20577;-52
2022/08/21 05:49:30;;;;;;;22.88;7.05;;;;;;;18.32;100.00;99545.44;5153649;27;20046;-51
2022/08/21 05:51:56;;;;;;;19.42;6.85;;;;;;;18.66;100.00;99553.91;5158456;27;20073;-53
2022/08/21 05:54:23;;;;;;;18.85;5.80;;;;;;;18.71;100.00;99552.66;5158316;27;20119;-50
2022/08/21 05:56:50;;;;;;;31.67;5.00;;;;;;;18.59;100.00;99545.59;5158878;27;20057;-53
2022/08/21 05:59:16;;;;;;;24.40;5.38;;;;;;;19.04;100.00;99551.19;5158272;27;20057;-52
2022/08/21 06:01:42;;;;;;;14.48;4.80;;;;;;;18.95;100.00;99542.53;5158451;27;20086;-51
2022/08/21 06:04:09;;;;;;;21.58;5.00;;;;;;;19.05;100.00;99536.06;5158202;27;20089;-52
2022/08/21 06:06:35;;;;;;;15.82;5.50;;;;;;;18.89;100.00;99522.75;5157848;27;20050;-52
2022/08/21 06:09:01;;;;;;;13.35;5.30;;;;;;;19.30;100.00;99524.69;5158106;27;20053;-50
2022/08/21 06:11:28;;;;;;;22.70;4.90;;;;;;;19.25;100.00;99503.69;5157889;27;20046;-51
2022/08/21 06:13:55;;;;;;;14.23;4.90;;;;;;;19.81;100.00;99485.91;5158107;27;20050;-50
2022/08/21 06:16:22;;;;;;;8.32;4.75;;;;;;;19.38;100.00;99442.00;5158077;27;20050;-51
2022/08/21 06:18:48;;;;;;;25.25;5.53;;;;;;;19.20;100.00;99459.69;5158056;27;20047;-53
2022/08/21 06:21:15;;;;;;;14.60;6.28;;;;;;;19.51;100.00;99454.91;5157938;27;20050;-52
2022/08/21 06:23:42;;;;;;;9.52;4.15;;;;;;;19.98;100.00;99451.47;5158431;27;20047;-49
2022/08/21 06:26:10;;;;;;;20.60;5.35;;;;;;;20.09;100.00;99351.09;5157672;27;20042;-52
2022/08/21 06:28:37;;;;;;;30.08;4.53;;;;;;;20.32;100.00;99272.34;5157720;27;20046;-52
2022/08/21 06:31:12;;;;;;;12.77;4.15;;;;;;;20.91;100.00;99155.25;5157695;27;20050;-50
2022/08/21 06:33:38;;;;;;;13.75;4.35;;;;;;;20.51;100.00;99176.88;5157702;27;20051;-53
2022/08/21 06:36:05;;;;;;;22.17;5.78;;;;;;;20.93;100.00;99065.66;5157918;27;20054;-50
2022/08/21 06:38:31;;;;;;;18.85;4.45;;;;;;;21.03;100.00;98996.94;5157585;27;20070;-51
2022/08/21 06:40:58;;;;;;;15.07;5.20;;;;;;;21.08;100.00;98848.66;5157762;27;20430;-51
2022/08/21 06:43:24;;;;;;;23.20;6.43;;;;;;;21.58;100.00;98958.72;5157563;27;20533;-50
2022/08/21 06:45:50;;;;;;;20.95;4.18;;;;;;;22.11;100.00;98698.69;5157885;27;20133;-50
2022/08/21 06:48:17;;;;;;;13.88;4.32;;;;;;;22.33;100.00;98573.06;5158072;27;20103;-52
2022/08/21 06:50:44;;;;;;;21.45;5.50;;;;;;;21.76;100.00;98621.38;5158224;27;20519;-50
2022/08/21 06:53:12;;;;;;;12.43;3.97;;;;;;;22.30;100.00;98546.81;5157405;27;20150;-50
2022/08/21 06:55:40;;;;;;;19.80;6.43;;;;;;;21.54;100.00;98701.47;5157703;27;20403;-51
2022/08/21 06:58:07;;;;;;;21.15;6.55;;;;;;;22.17;100.00;98596.41;5157330;27;20098;-50
2022/08/21 07:00:34;;;;;;;10.88;4.57;;;;;;;23.10;100.00;98416.56;5156436;27;20042;-50
2022/08/21 07:03:00;;;;;;;18.65;4.30;;;;;;;23.59;100.00;98292.41;5154000;27;20146;-53
2022/08/21 07:05:28;;;;;;;18.98;5.10;;;;;;;23.51;100.00;98216.47;5153899;27;20053;-49
2022/08/21 07:07:55;;;;;;;17.27;5.68;;;;;;;25.03;100.00;98054.66;5154180;27;20529;-53
2022/08/21 07:10:21;;;;;;;14.98;5.32;;;;;;;25.54;100.00;98002.72;5153890;27;20050;-51
2022/08/21 07:12:47;;;;;;;21.40;5.47;;;;;;;25.60;100.00;98008.41;5153933;27;20141;-53
2022/08/21 07:15:14;;;;;;;17.65;5.22;;;;;;;25.25;100.00;98009.31;5153997;27;20466;-56
2022/08/21 07:17:40;;;;;;;20.05;6.35;;;;;;;26.24;100.00;98012.81;5154412;27;20620;-53
2022/08/21 07:20:07;;;;;;;17.65;5.78;;;;;;;25.44;100.00;98017.44;5153759;27;20051;-54
2022/08/21 07:22:36;;;;;;;15.52;5.30;;;;;;;25.44;100.00;97992.94;5154189;27;20051;-54
2022/08/21 07:25:04;;;;;;;19.00;5.20;;;;;;;25.94;100.00;97995.47;5153753;27;20054;-54
2022/08/21 07:27:31;;;;;;;17.40;4.88;;;;;;;24.81;100.00;98004.66;5153799;27;20053;-54
2022/08/21 07:29:57;;;;;;;29.65;5.38;;;;;;;24.09;100.00;98033.16;5153782;27;20111;-54
2022/08/21 07:32:24;;;;;;;17.48;4.97;;;;;;;23.22;100.00;98096.84;5153670;27;20422;-52
2022/08/21 07:34:50;;;;;;;20.73;5.30;;;;;;;22.85;100.00;98152.94;5153865;27;20524;-54
2022/08/21 07:37:16;;;;;;;19.33;5.22;;;;;;;23.53;100.00;98199.22;5153979;27;20051;-51
2022/08/21 07:39:43;;;;;;;21.58;5.60;;;;;;;24.11;100.00;98088.66;5153813;27;20501;-54
2022/08/21 07:42:10;;;;;;;22.92;6.10;;;;;;;23.81;100.00;98077.44;5153620;27;20165;-53
2022/08/21 07:44:37;;;;;;;21.58;6.07;;;;;;;23.12;100.00;98154.84;5153568;27;20143;-52
2022/08/21 07:47:03;;;;;;;22.80;6.10;;;;;;;23.77;100.00;98176.84;5153240;27;20084;-51
2022/08/21 07:49:30;;;;;;;17.17;5.35;;;;;;;23.22;100.00;98149.97;5153608;27;20043;-52
2022/08/21 07:51:56;;;;;;;19.80;4.82;;;;;;;23.56;100.00;98151.47;5153253;27;20501;-51
2022/08/21 07:54:23;;;;;;;25.75;5.65;;;;;;;23.54;100.00;98175.56;5153039;27;20050;-54
2022/08/21 07:56:50;;;;;;;25.73;5.85;;;;;;;23.04;100.00;98203.19;5153165;27;20053;-51
2022/08/21 07:59:16;;;;;;;22.05;5.65;;;;;;;22.63;100.00;98357.13;5152959;27;20078;-49
2022/08/21 08:01:42;;;;;;;13.38;4.43;;;;;;;22.21;100.00;98423.94;5153150;27;20506;-50
2022/08/21 08:04:08;;;;;;;15.20;5.55;;;;;;;22.29;100.00;98475.44;5152814;27;20406;-49
2022/08/21 08:06:35;;;;;;;21.23;5.57;;;;;;;22.61;100.00;98367.19;5153041;27;20051;-50
2022/08/21 08:09:03;;;;;;;20.98;4.45;;;;;;;22.37;100.00;98415.28;5152855;27;20129;-51
2022/08/21 08:11:29;;;;;;;11.70;4.47;;;;;;;22.87;100.00;98348.09;5152798;27;20050;-52
2022/08/21 08:13:57;;;;;;;17.02;3.58;;;;;;;22.38;100.00;98374.94;5152052;27;20463;-50
2022/08/21 08:16:23;;;;;;;17.55;5.20;;;;;;;22.30;100.00;98475.00;5152966;27;20046;-51
2022/08/21 08:18:50;;;;;;;9.68;3.88;;;;;;;22.93;100.00;98388.19;5152621;27;20502;-52
2022/08/21 08:21:18;;;;;;;12.50;5.13;;;;;;;22.59;100.00;98260.72;5152495;27;20137;-50
2022/08/21 08:23:45;;;;;;;12.32;4.20;;;;;;;22.82;100.00;98257.25;5152557;27;20059;-54
2022/08/21 08:26:11;;;;;;;16.48;3.92;;;;;;;23.11;100.00;98239.19;5152557;27;20425;-52
2022/08/21 08:28:38;;;;;;;17.15;4.97;;;;;;;22.38;100.00;98349.81;5152566;27;20046;-52
2022/08/21 08:31:05;;;;;;;17.08;3.60;;;;;;;22.88;100.00;98367.16;5152323;27;20046;-51
2022/08/21 08:33:31;;;;;;;18.10;5.65;;;;;;;23.01;100.00;98278.34;5152502;27;20055;-53
2022/08/21 08:35:57;;;;;;;15.07;4.10;;;;;;;23.48;100.00;98223.78;5152347;27;20042;-54
2022/08/21 08:38:25;;;;;;;20.65;3.63;;;;;;;23.53;100.00;98213.97;5152521;27;20066;-54
2022/08/21 08:41:00;;;;;;;18.40;5.05;;;;;;;23.36;100.00;98215.59;5152211;27;20102;-53
2022/08/21 08:43:28;;;;;;;18.63;5.30;;;;;;;24.02;100.00;98125.13;5152398;27;20053;-53
2022/08/21 08:45:58;;;;;;;15.63;3.88;;;;;;;24.28;100.00;98036.50;5152484;27;20050;-52
2022/08/21 08:48:48;;;;;;;19.02;4.70;;;;;;;25.10;100.00;97972.91;5152417;27;20440;-53
2022/08/21 08:51:20;;;;;;;21.73;4.70;;;;;;;25.86;100.00;97945.88;5152388;27;20138;-54
2022/08/21 08:53:51;;;;;;;21.60;4.95;;;;;;;26.49;100.00;97969.09;5151906;27;20061;-54
2022/08/21 08:56:22;;;;;;;27.65;4.40;;;;;;;25.43;100.00;97946.53;5152126;27;20422;-54
2022/08/21 08:58:52;;;;;;;20.38;5.00;;;;;;;26.24;100.00;97939.00;5152179;27;20560;-54
2022/08/21 09:01:20;;;;;;;25.77;5.07;;;;;;;24.88;100.00;97939.00;5152190;27;20053;-53
2022/08/21 09:03:49;;;;;;;19.27;5.15;;;;;;;25.09;100.00;97934.13;5151813;27;20058;-54
2022/08/21 09:06:29;;;;;;;24.35;5.68;;;;;;;24.52;100.00;97943.91;5151880;27;20055;-53
2022/08/21 09:09:08;;;;;;;14.93;4.55;;;;;;;25.17;100.00;97918.47;5152231;27;20055;-55
2022/08/21 09:11:42;;;;;;;21.33;4.95;;;;;;;25.37;100.00;97920.44;5151620;27;20068;-54
2022/08/21 09:14:17;;;;;;;17.73;3.42;;;;;;;25.58;100.00;97913.47;5151950;27;20046;-51
2022/08/21 09:16:56;;;;;;;16.30;4.20;;;;;;;25.19;100.00;97917.97;5151544;27;20099;-52
2022/08/21 09:19:35;;;;;;;18.30;4.53;;;;;;;24.96;100.00;97911.31;5152040;27;20141;-52
2022/08/21 09:22:09;;;;;;;21.88;5.10;;;;;;;24.91;100.00;97914.84;5151732;27;20050;-52
2022/08/21 09:24:43;;;;;;;20.80;5.25;;;;;;;24.23;100.00;97938.41;5150605;27;20428;-53
2022/08/21 09:27:12;;;;;;;17.15;4.70;;;;;;;24.27;100.00;97928.53;5151863;27;20046;-53
2022/08/21 09:29:40;;;;;;;10.50;3.25;;;;;;;24.00;100.00;97942.91;5151815;27;20053;-51
2022/08/21 09:32:18;;;;;;;20.58;4.93;;;;;;;24.61;100.00;97929.00;5151600;27;20516;-53
2022/08/21 09:34:57;;;;;;;24.33;5.28;;;;;;;25.45;100.00;97918.72;5151507;27;20066;-54
2022/08/21 09:37:25;;;;;;;19.45;5.07;;;;;;;24.94;100.00;97911.81;5151432;27;20049;-54
2022/08/21 09:39:51;;;;;;;21.65;4.75;;;;;;;24.84;100.00;97913.22;5151243;27;20497;-51
2022/08/21 09:42:24;;;;;;;21.35;4.75;;;;;;;25.88;100.00;97923.69;5151276;27;20050;-53
2022/08/21 09:45:10;;;;;;;13.80;3.33;;;;;;;25.12;100.00;97921.97;5151460;27;20490;-53
2022/08/21 09:47:37;;;;;;;22.20;4.80;;;;;;;25.67;100.00;97920.97;5151464;27;20137;-53
2022/08/21 09:50:12;;;;;;;23.83;4.97;;;;;;;26.12;100.00;97912.13;5151180;27;20547;-50
2022/08/21 09:52:46;;;;;;;21.10;4.95;;;;;;;25.22;100.00;97900.91;5151146;27;20466;-51
2022/08/21 09:58:05;;;;;;;22.38;4.70;;;;;;;24.73;100.00;97901.91;5151439;27;20520;-51
2022/08/21 10:00:34;;;;;;;28.05;5.05;;;;;;;24.32;100.00;97891.41;5151095;27;20053;-50
2022/08/21 10:03:12;;;;;;;25.23;5.22;;;;;;;25.26;100.00;97884.66;5151314;27;20179;-50
2022/08/21 10:05:40;;;;;;;25.95;4.68;;;;;;;25.22;100.00;97881.28;5151130;27;20587;-52
2022/08/21 10:08:18;;;;;;;19.83;4.82;;;;;;;25.26;100.00;97881.84;5151315;27;20162;-50
2022/08/21 10:10:44;;;;;;;19.20;4.35;;;;;;;25.35;100.00;97872.47;5150919;27;20054;-50
2022/08/21 10:13:13;;;;;;;21.17;4.80;;;;;;;25.47;100.00;97859.31;5151413;27;20123;-50
2022/08/21 10:15:50;;;;;;;20.75;4.28;;;;;;;26.44;100.00;97862.22;5150910;27;20051;-50
2022/08/21 10:18:24;;;;;;;23.27;5.18;;;;;;;27.27;100.00;97917.25;5151321;27;20616;-51
2022/08/21 10:21:01;;;;;;;28.02;5.82;;;;;;;27.05;100.00;97931.97;5151147;27;20485;-50
2022/08/21 10:23:45;;;;;;;15.77;4.13;;;;;;;27.13;100.00;97913.38;5151038;27;20047;-51
2022/08/21 10:26:25;;;;;;;23.42;5.32;;;;;;;26.93;100.00;97908.69;5151075;27;20558;-51
2022/08/21 10:29:02;;;;;;;21.75;4.60;;;;;;;26.26;100.00;97937.25;5150734;27;20506;-52
2022/08/21 10:31:37;;;;;;;21.30;5.32;;;;;;;26.43;100.00;97917.66;5150752;27;20518;-53
2022/08/21 10:34:16;;;;;;;22.98;4.93;;;;;;;25.92;100.00;97905.34;5150939;27;20046;-53
2022/08/21 10:36:50;;;;;;;21.52;5.30;;;;;;;27.15;100.00;97930.50;5153389;27;20557;-54
2022/08/21 10:39:24;;;;;;;20.20;4.90;;;;;;;26.71;100.00;97943.13;5155014;27;20154;-52
2022/08/21 10:42:10;;;;;;;18.35;4.22;;;;;;;26.55;100.00;97935.38;5154245;27;20046;-53
2022/08/21 10:44:47;;;;;;;25.50;5.35;;;;;;;27.03;100.00;97905.66;5154457;27;20512;-54
2022/08/21 10:47:22;;;;;;;29.55;5.63;;;;;;;26.83;100.00;97938.31;5154120;27;20050;-52
2022/08/21 10:50:05;;;;;;;24.80;4.82;;;;;;;26.59;100.00;97932.31;5154147;27;20051;-53
2022/08/21 10:52:50;;;;;;;22.40;4.87;;;;;;;26.63;100.00;97916.00;5154177;27;20086;-54
2022/08/21 10:55:20;;;;;;;31.02;5.13;;;;;;;26.48;100.00;97930.22;5153853;27;20286;-54
2022/08/21 10:57:51;;;;;;;27.40;4.55;;;;;;;26.22;100.00;97902.22;5154132;27;20053;-55
2022/08/21 11:00:20;;;;;;;22.52;5.25;;;;;;;25.90;100.00;97881.88;5154211;27;20138;-52
2022/08/21 11:02:53;;;;;;;21.50;5.32;;;;;;;26.31;100.00;97882.34;5153814;27;20082;-52
2022/08/21 11:05:28;;;;;;;17.10;4.43;;;;;;;26.75;100.00;97911.94;5153877;27;20051;-54
2022/08/21 11:08:02;;;;;;;22.33;5.40;;;;;;;26.39;100.00;97889.03;5153837;27;20047;-54
2022/08/21 11:10:35;;;;;;;25.90;5.22;;;;;;;25.96;100.00;97885.47;5154011;27;20506;-53
2022/08/21 11:13:06;;;;;;;24.55;5.20;;;;;;;25.45;100.00;97864.66;5153710;27;20516;-54
2022/08/21 11:15:39;;;;;;;27.08;5.22;;;;;;;25.19;100.00;97850.66;5153932;27;20042;-52
2022/08/21 11:18:17;;;;;;;24.30;5.18;;;;;;;25.48;100.00;97839.16;5153633;27;20141;-54
2022/08/21 11:20:50;;;;;;;19.95;4.88;;;;;;;25.92;100.00;97843.56;5153683;27;20051;-52
2022/08/21 11:23:23;;;;;;;30.50;4.85;;;;;;;25.84;100.00;97855.78;5153925;27;20093;-52
2022/08/21 11:25:55;;;;;;;17.67;5.10;;;;;;;25.93;100.00;97861.22;5153691;27;20046;-53